Time;durP1;ratioP1;P1;durP2;ratioP2;P2;SDS_P1;SDS_P2;PMS_P1;PMS_P2;Temp;Humidity;BMP_temperature;BMP_pressure;BME280_temperature;BME280_humidity;BME280_pressure;Samples;Min_cycle;Max_cycle;Signal;HPM_P1;HPM_P2
2021/09/24 00:00:07;;;;;;;268.33;252.70;;;;;;;16.04;53.87;100562.69;679762;28;46317;-67
2021/09/24 00:00:34;;;;;;;177.18;166.90;;;;;;;16.04;54.11;100574.41;676649;28;137652;-67
2021/09/24 00:00:57;;;;;;;271.40;254.98;;;;;;;16.04;53.63;100568.94;679429;28;46540;-67
2021/09/24 00:01:20;;;;;;;381.92;358.35;;;;;;;16.02;53.17;100562.06;680570;28;69287;-68
2021/09/24 00:01:41;;;;;;;400.52;375.85;;;;;;;16.02;53.41;100570.25;681627;28;68740;-67
2021/09/24 00:02:02;;;;;;;366.35;343.95;;;;;;;16.01;53.20;100571.28;683224;28;24513;-68
2021/09/24 00:02:23;;;;;;;226.45;213.05;;;;;;;16.01;53.49;100563.13;683165;28;22360;-68
2021/09/24 00:02:45;;;;;;;248.05;233.50;;;;;;;16.01;53.44;100558.50;683317;28;21184;-68
2021/09/24 00:03:06;;;;;;;366.65;344.98;;;;;;;16.00;53.45;100561.44;682559;28;46310;-68
2021/09/24 00:03:27;;;;;;;255.05;240.20;;;;;;;15.99;53.55;100566.06;682760;28;22392;-67
2021/09/24 00:03:48;;;;;;;290.52;273.52;;;;;;;16.02;53.67;100565.63;683402;28;23430;-68
2021/09/24 00:04:11;;;;;;;417.05;392.10;;;;;;;16.02;53.58;100571.06;683183;28;23498;-68
2021/09/24 00:04:36;;;;;;;452.92;425.65;;;;;;;16.02;53.29;100570.25;681215;28;93062;-67
2021/09/24 00:04:57;;;;;;;488.13;458.58;;;;;;;16.03;53.61;100563.72;680602;28;92164;-68
2021/09/24 00:05:18;;;;;;;435.52;408.75;;;;;;;16.06;53.34;100560.56;682866;28;21527;-68
2021/09/24 00:05:40;;;;;;;407.67;382.52;;;;;;;16.06;53.19;100560.56;683049;28;24201;-67
2021/09/24 00:06:02;;;;;;;639.45;598.80;;;;;;;16.06;53.01;100557.00;681633;28;65187;-67
2021/09/24 00:06:23;;;;;;;649.17;608.17;;;;;;;16.06;52.95;100566.00;682401;28;46308;-67
2021/09/24 00:06:44;;;;;;;475.52;446.15;;;;;;;16.07;52.75;100555.97;682879;28;22411;-68
2021/09/24 00:07:07;;;;;;;507.50;475.92;;;;;;;16.06;52.73;100563.28;683243;28;22383;-68
2021/09/24 00:07:29;;;;;;;842.25;788.88;;;;;;;16.07;52.90;100564.16;682603;28;45392;-67
2021/09/24 00:07:50;;;;;;;807.40;756.47;;;;;;;16.07;52.76;100566.88;682034;28;44420;-67
2021/09/24 00:08:11;;;;;;;1097.57;999.90;;;;;;;16.07;52.76;100562.25;683119;28;22544;-68
2021/09/24 00:08:33;;;;;;;1027.90;962.90;;;;;;;16.08;52.71;100560.34;682997;28;22550;-68
2021/09/24 00:08:54;;;;;;;1035.90;970.35;;;;;;;16.08;52.64;100565.78;680543;28;17514;-68
2021/09/24 00:09:15;;;;;;;1135.10;999.90;;;;;;;16.08;52.30;100572.09;680173;28;22388;-68
2021/09/24 00:09:36;;;;;;;1134.40;999.90;;;;;;;16.06;52.33;100568.72;680575;28;22352;-68
2021/09/24 00:09:58;;;;;;;1038.95;972.53;;;;;;;16.05;52.39;100569.81;679880;28;23480;-67
2021/09/24 00:10:20;;;;;;;957.17;896.00;;;;;;;16.03;52.42;100578.19;679678;28;47274;-68
2021/09/24 00:10:42;;;;;;;799.70;748.92;;;;;;;16.02;52.43;100570.25;679823;28;45215;-68
2021/09/24 00:11:03;;;;;;;383.90;360.27;;;;;;;16.00;52.35;100575.91;680314;29;19659;-68
2021/09/24 00:11:28;;;;;;;617.33;578.87;;;;;;;15.98;52.57;100566.28;680284;28;38820;-68
2021/09/24 00:11:49;;;;;;;739.15;693.03;;;;;;;15.96;52.43;100565.66;680053;28;45105;-68
2021/09/24 00:12:10;;;;;;;1049.90;982.47;;;;;;;15.94;52.62;100570.47;680185;29;21521;-68
2021/09/24 00:12:33;;;;;;;1115.22;999.90;;;;;;;15.93;52.57;100568.81;679910;28;46250;-68
2021/09/24 00:12:55;;;;;;;1149.50;999.90;;;;;;;15.91;52.69;100563.59;681064;28;47167;-68
2021/09/24 00:13:16;;;;;;;1185.57;999.90;;;;;;;15.89;52.75;100570.28;682230;28;44404;-68
2021/09/24 00:13:38;;;;;;;1186.30;999.90;;;;;;;15.89;52.80;100567.56;682896;28;21605;-68
2021/09/24 00:13:59;;;;;;;1233.60;999.90;;;;;;;15.87;52.80;100566.97;682626;28;44115;-68
2021/09/24 00:14:20;;;;;;;1203.95;999.90;;;;;;;15.84;52.91;100566.31;680328;28;23262;-68
2021/09/24 00:14:43;;;;;;;1223.30;999.90;;;;;;;15.84;53.02;100571.75;680575;28;21532;-68
2021/09/24 00:15:07;;;;;;;1239.75;999.90;;;;;;;15.83;53.09;100566.53;679231;28;44352;-68
2021/09/24 00:15:31;;;;;;;1148.40;999.90;;;;;;;15.82;53.01;100571.16;679662;28;61178;-67
2021/09/24 00:15:53;;;;;;;1132.85;999.90;;;;;;;15.80;52.97;100567.00;680399;28;23505;-68
2021/09/24 00:16:15;;;;;;;1227.18;999.90;;;;;;;15.78;53.13;100556.31;679928;28;69511;-68
2021/09/24 00:16:36;;;;;;;1241.13;999.90;;;;;;;15.77;53.35;100564.69;682286;28;45303;-68
2021/09/24 00:16:57;;;;;;;1239.03;999.90;;;;;;;15.79;53.54;100565.31;683789;28;22420;-68
2021/09/24 00:17:19;;;;;;;1243.40;999.90;;;;;;;15.79;53.30;100555.25;683072;28;21573;-68
2021/09/24 00:17:41;;;;;;;1248.97;999.90;;;;;;;15.80;53.19;100558.81;680742;28;67529;-68
2021/09/24 00:18:02;;;;;;;1256.50;999.90;;;;;;;15.79;53.28;100557.16;683013;28;22391;-68
2021/09/24 00:18:27;;;;;;;1266.82;999.90;;;;;;;15.76;53.32;100561.09;682502;28;37664;-68
2021/09/24 00:18:49;;;;;;;1260.50;999.90;;;;;;;15.75;53.20;100566.75;683175;28;23512;-68
2021/09/24 00:19:10;;;;;;;1255.50;999.90;;;;;;;15.72;53.43;100568.03;682265;28;46338;-68
2021/09/24 00:19:31;;;;;;;1252.13;999.90;;;;;;;15.66;53.49;100558.84;683290;28;23454;-68
2021/09/24 00:19:52;;;;;;;1248.78;999.90;;;;;;;15.67;53.57;100565.97;682328;28;21519;-68
2021/09/24 00:20:14;;;;;;;1236.15;999.90;;;;;;;15.67;53.70;100568.69;682094;28;21564;-68
2021/09/24 00:20:35;;;;;;;1227.07;999.90;;;;;;;15.65;53.48;100573.47;682412;28;46377;-68
2021/09/24 00:20:57;;;;;;;1217.78;999.90;;;;;;;15.66;53.71;100577.06;682789;28;22392;-68
2021/09/24 00:21:18;;;;;;;1121.50;999.90;;;;;;;15.66;53.62;100577.06;683306;28;22250;-68
2021/09/24 00:21:40;;;;;;;1114.47;999.90;;;;;;;15.66;53.90;100579.78;683106;28;23824;-68
2021/09/24 00:22:01;;;;;;;1142.80;999.90;;;;;;;15.66;53.69;100571.63;682071;28;46995;-68
2021/09/24 00:22:22;;;;;;;1222.23;999.90;;;;;;;15.67;53.76;100576.00;683773;28;14754;-67
2021/09/24 00:22:43;;;;;;;1249.45;999.90;;;;;;;15.69;53.85;100576.63;682745;28;44435;-68
2021/09/24 00:23:06;;;;;;;1261.53;999.90;;;;;;;15.69;53.92;100571.19;683027;28;23481;-68
2021/09/24 00:23:27;;;;;;;1256.60;999.90;;;;;;;15.70;53.81;100582.91;682039;28;46358;-67
2021/09/24 00:23:48;;;;;;;1259.05;999.90;;;;;;;15.71;53.76;100579.97;683361;28;21276;-67
2021/09/24 00:24:09;;;;;;;1258.60;999.90;;;;;;;15.73;53.68;100580.56;683065;28;23474;-68
2021/09/24 00:24:31;;;;;;;1250.75;999.90;;;;;;;15.71;53.58;100585.41;682606;28;45420;-68
2021/09/24 00:24:52;;;;;;;1245.03;999.90;;;;;;;15.71;53.54;100570.97;681943;28;44364;-68
2021/09/24 00:25:14;;;;;;;1243.95;999.90;;;;;;;15.70;53.53;100572.00;682827;28;21540;-68
2021/09/24 00:25:35;;;;;;;1245.63;999.90;;;;;;;15.68;53.60;100574.94;683035;28;23401;-68
2021/09/24 00:25:57;;;;;;;1252.00;999.90;;;;;;;15.67;53.49;100576.84;683079;28;21525;-67
2021/09/24 00:26:18;;;;;;;1253.65;999.90;;;;;;;15.67;53.50;100576.84;682484;28;46301;-67
2021/09/24 00:26:39;;;;;;;1256.50;999.90;;;;;;;15.68;53.94;100585.84;683220;28;23465;-67
2021/09/24 00:27:02;;;;;;;1246.50;999.90;;;;;;;15.69;53.78;100582.09;678471;29;45262;-67
2021/09/24 00:27:23;;;;;;;1247.53;999.90;;;;;;;15.66;53.48;100574.34;680001;28;46336;-67
2021/09/24 00:27:44;;;;;;;1247.93;999.90;;;;;;;15.68;53.60;100575.78;680041;28;24014;-68
2021/09/24 00:28:08;;;;;;;1244.40;999.90;;;;;;;15.69;53.71;100582.09;680156;29;22394;-68
2021/09/24 00:28:30;;;;;;;1232.90;999.90;;;;;;;15.67;53.72;100581.44;677311;28;116231;-68
2021/09/24 00:28:51;;;;;;;1136.00;999.90;;;;;;;15.66;53.56;100571.63;681461;28;1573;-68
2021/09/24 00:29:12;;;;;;;1163.80;999.90;;;;;;;15.66;53.68;100585.22;680831;28;22388;-68
2021/09/24 00:29:33;;;;;;;1209.75;999.90;;;;;;;15.66;53.75;100574.34;683314;28;23633;-68
2021/09/24 00:29:55;;;;;;;1212.50;999.90;;;;;;;15.65;53.75;100584.38;682796;28;23416;-67
2021/09/24 00:30:17;;;;;;;1212.68;999.90;;;;;;;15.65;53.37;100580.81;682212;28;45264;-67
2021/09/24 00:30:38;;;;;;;1215.45;999.90;;;;;;;15.64;53.63;100588.16;683074;28;22406;-68
2021/09/24 00:31:00;;;;;;;1220.97;999.90;;;;;;;15.63;53.64;100578.31;683089;28;21426;-67
2021/09/24 00:31:21;;;;;;;1212.88;999.90;;;;;;;15.63;54.01;100588.38;682373;28;46507;-68
2021/09/24 00:31:42;;;;;;;1207.97;999.90;;;;;;;15.62;53.91;100582.06;683353;28;21155;-67
2021/09/24 00:32:03;;;;;;;1207.57;999.90;;;;;;;15.63;53.78;100588.38;683035;28;21494;-68
2021/09/24 00:32:26;;;;;;;1239.47;999.90;;;;;;;15.61;53.52;100579.56;679861;28;21619;-68
2021/09/24 00:32:47;;;;;;;1232.05;999.90;;;;;;;15.61;53.89;100587.75;678834;28;69480;-67
2021/09/24 00:33:08;;;;;;;1231.75;999.90;;;;;;;15.64;53.90;100585.44;680137;29;23494;-68
2021/09/24 00:33:29;;;;;;;1223.30;999.90;;;;;;;15.63;53.96;100581.03;680544;28;21536;-68
2021/09/24 00:33:51;;;;;;;1217.55;999.90;;;;;;;15.64;53.83;100580.00;680269;28;22315;-68
2021/09/24 00:34:12;;;;;;;1224.88;999.90;;;;;;;15.65;53.93;100583.56;679491;29;44483;-67
2021/09/24 00:34:33;;;;;;;1224.70;999.90;;;;;;;15.63;53.65;100578.31;680711;29;23454;-67
2021/09/24 00:34:54;;;;;;;1222.85;999.90;;;;;;;15.64;53.81;100584.59;679937;28;22384;-68
2021/09/24 00:35:17;;;;;;;1227.45;999.90;;;;;;;15.63;53.84;100588.38;680331;28;21611;-68
2021/09/24 00:35:38;;;;;;;1226.55;999.90;;;;;;;15.62;53.83;100579.34;679642;29;45248;-68
2021/09/24 00:35:59;;;;;;;1227.18;999.90;;;;;;;15.64;53.83;100584.59;679493;28;44255;-67
2021/09/24 00:36:20;;;;;;;1239.75;999.90;;;;;;;15.64;53.90;100582.72;680738;29;22446;-68
2021/09/24 00:36:42;;;;;;;1242.05;999.90;;;;;;;15.65;53.80;100591.72;679360;29;23469;-68
2021/09/24 00:37:03;;;;;;;1240.53;999.90;;;;;;;15.68;53.88;100580.41;679543;28;46803;-68
2021/09/24 00:37:24;;;;;;;1232.78;999.90;;;;;;;15.68;53.69;100580.41;680777;29;22452;-68
2021/09/24 00:37:46;;;;;;;1225.40;999.90;;;;;;;15.71;54.00;100579.16;680152;29;22394;-68
2021/09/24 00:38:07;;;;;;;1221.35;999.90;;;;;;;15.71;53.96;100579.97;679598;29;46335;-68
2021/09/24 00:38:29;;;;;;;1221.40;999.90;;;;;;;15.69;53.93;100590.25;680589;29;21545;-68
2021/09/24 00:38:50;;;;;;;1222.82;999.90;;;;;;;15.72;53.85;100589.81;680435;28;23307;-67
2021/09/24 00:39:12;;;;;;;1225.43;999.90;;;;;;;15.70;53.60;100594.63;680492;29;23383;-67
2021/09/24 00:39:33;;;;;;;1231.93;999.90;;;;;;;15.68;53.49;100585.84;679923;29;44066;-67
2021/09/24 00:39:54;;;;;;;1238.43;999.90;;;;;;;15.67;53.84;100595.91;679559;28;46294;-68
2021/09/24 00:40:15;;;;;;;1246.82;999.90;;;;;;;15.66;53.58;100590.69;679647;28;22414;-68
2021/09/24 00:40:37;;;;;;;1249.32;999.90;;;;;;;15.70;53.79;100591.06;680602;28;23329;-67
2021/09/24 00:40:58;;;;;;;1250.60;999.90;;;;;;;15.70;53.58;100591.91;679176;28;44411;-68
2021/09/24 00:41:19;;;;;;;1250.80;999.90;;;;;;;15.71;53.61;100599.03;680657;29;23443;-68
2021/09/24 00:41:40;;;;;;;1242.57;999.90;;;;;;;15.71;53.53;100593.59;680441;29;20760;-68
2021/09/24 00:42:03;;;;;;;1227.47;999.90;;;;;;;15.71;53.37;100595.47;679703;28;21566;-68
2021/09/24 00:42:24;;;;;;;1225.25;999.90;;;;;;;15.70;53.50;100583.72;679459;29;46564;-67
2021/09/24 00:42:45;;;;;;;1225.87;999.90;;;;;;;15.69;53.44;100582.09;679865;29;46348;-68
2021/09/24 00:43:07;;;;;;;1233.93;999.90;;;;;;;15.68;53.66;100578.50;679572;29;46383;-68
2021/09/24 00:43:38;;;;;;;1243.47;999.90;;;;;;;15.68;53.59;100588.56;677847;28;83840;-68
2021/09/24 00:44:01;;;;;;;1246.70;999.90;;;;;;;15.63;53.45;100589.22;679361;28;67516;-68
2021/09/24 00:44:25;;;;;;;1240.05;999.90;;;;;;;15.65;53.63;100594.44;679585;29;45112;-68
2021/09/24 00:44:48;;;;;;;1244.55;999.90;;;;;;;15.63;53.49;100594.66;676882;29;113627;-68
2021/09/24 00:45:11;;;;;;;1244.10;999.90;;;;;;;15.62;53.64;100589.41;678817;29;66404;-68
2021/09/24 00:45:32;;;;;;;1236.38;999.90;;;;;;;15.61;53.66;100591.31;679162;29;67555;-67
2021/09/24 00:45:53;;;;;;;1117.10;999.90;;;;;;;15.59;53.84;100587.94;679884;28;22281;-68
2021/09/24 00:46:15;;;;;;;1135.50;999.90;;;;;;;15.59;53.73;100587.13;680216;29;22417;-68
2021/09/24 00:46:36;;;;;;;1018.92;950.05;;;;;;;15.60;53.67;100592.34;679044;29;45220;-68
2021/09/24 00:46:57;;;;;;;172.02;161.02;;;;;;;15.63;53.88;100591.94;681141;28;21536;-68
2021/09/24 00:47:19;;;;;;;11.70;11.25;;;;;;;15.63;53.83;100594.66;680321;28;22132;-68
2021/09/24 00:47:41;;;;;;;65.78;62.28;;;;;;;15.62;53.83;100587.53;679103;29;45221;-68
2021/09/24 00:48:03;;;;;;;91.35;86.40;;;;;;;15.63;53.79;100597.38;679735;28;47251;-67
2021/09/24 00:48:24;;;;;;;503.45;472.52;;;;;;;15.64;53.77;100592.75;679790;29;46345;-68
2021/09/24 00:48:46;;;;;;;1110.95;999.90;;;;;;;15.65;53.68;100597.97;680262;29;21458;-68
2021/09/24 00:49:10;;;;;;;1152.32;999.90;;;;;;;15.64;53.49;100601.78;679622;29;47348;-68
2021/09/24 00:49:31;;;;;;;1210.15;999.90;;;;;;;15.64;53.63;100592.75;678382;29;92936;-68
2021/09/24 00:49:52;;;;;;;1225.22;999.90;;;;;;;15.65;53.70;100597.16;679385;28;22376;-68
2021/09/24 00:50:13;;;;;;;1238.15;999.90;;;;;;;15.65;53.48;100589.00;680412;29;22404;-67
2021/09/24 00:50:36;;;;;;;1236.47;999.90;;;;;;;15.64;53.67;100581.88;674743;28;21541;-68
2021/09/24 00:50:57;;;;;;;1229.63;999.90;;;;;;;15.64;53.61;100592.75;678704;28;69451;-68
2021/09/24 00:51:18;;;;;;;1229.85;999.90;;;;;;;15.64;53.50;100598.19;680563;29;22400;-68
2021/09/24 00:51:39;;;;;;;1195.68;999.90;;;;;;;15.63;53.41;100597.38;680351;29;21548;-67
2021/09/24 00:52:01;;;;;;;1215.82;999.90;;;;;;;15.62;53.67;100592.13;680514;29;22462;-67
2021/09/24 00:52:23;;;;;;;1234.75;999.90;;;;;;;15.58;53.52;100588.16;679969;29;44334;-68
2021/09/24 00:52:44;;;;;;;1229.95;999.90;;;;;;;15.63;53.52;100596.53;679875;29;44274;-68
2021/09/24 00:53:05;;;;;;;1228.47;999.90;;;;;;;15.61;53.63;100591.31;680484;29;23412;-68
2021/09/24 00:53:29;;;;;;;1238.82;999.90;;;;;;;15.60;53.52;100600.53;680562;29;22420;-68
2021/09/24 00:53:52;;;;;;;1236.72;999.90;;;;;;;15.61;53.56;100590.47;677807;29;92083;-68
2021/09/24 00:54:13;;;;;;;1235.00;999.90;;;;;;;15.61;53.72;100588.59;679021;29;69430;-67
2021/09/24 00:54:36;;;;;;;1239.57;999.90;;;;;;;15.62;53.75;100592.13;680683;29;22428;-68
2021/09/24 00:54:57;;;;;;;1235.75;999.90;;;;;;;15.62;53.79;100592.97;679353;28;50957;-68
2021/09/24 00:55:19;;;;;;;1235.25;999.90;;;;;;;15.61;53.58;100595.91;680547;29;22209;-68
2021/09/24 00:55:40;;;;;;;1225.95;999.90;;;;;;;15.61;53.55;100601.34;679160;28;46335;-68
2021/09/24 00:56:01;;;;;;;1220.82;999.90;;;;;;;15.60;53.67;100591.53;680713;28;21552;-68
2021/09/24 00:56:23;;;;;;;1208.32;999.90;;;;;;;15.59;53.65;100596.13;681355;29;1628;-68
2021/09/24 00:56:46;;;;;;;1201.57;999.90;;;;;;;15.59;53.57;100589.84;679855;29;46152;-68
2021/09/24 00:57:07;;;;;;;1202.80;999.90;;;;;;;15.57;53.79;100600.94;679470;28;46337;-68
2021/09/24 00:57:28;;;;;;;1210.85;999.90;;;;;;;15.56;53.63;100593.00;679838;29;46179;-68
2021/09/24 00:57:50;;;;;;;1218.13;999.90;;;;;;;15.57;53.66;100590.06;680351;29;22385;-68
2021/09/24 00:58:13;;;;;;;1219.38;999.90;;;;;;;15.54;53.33;100582.31;679667;29;45176;-67
2021/09/24 00:58:34;;;;;;;1226.25;999.90;;;;;;;15.56;53.71;100588.38;679895;29;44391;-67
2021/09/24 00:58:55;;;;;;;1234.25;999.90;;;;;;;15.57;53.79;100584.63;679573;28;46274;-67
2021/09/24 00:59:17;;;;;;;1234.22;999.90;;;;;;;15.56;53.62;100593.00;680360;29;21587;-67
2021/09/24 00:59:39;;;;;;;1235.97;999.90;;;;;;;15.56;53.67;100593.00;679614;29;45245;-68
2021/09/24 01:00:00;;;;;;;1231.07;999.90;;;;;;;15.56;53.98;100591.09;680628;28;22479;-67
2021/09/24 01:00:21;;;;;;;1228.75;999.90;;;;;;;15.57;53.65;100589.22;680792;29;21409;-68
2021/09/24 01:00:43;;;;;;;1226.88;999.90;;;;;;;15.57;53.66;100592.78;679907;28;21457;-68
2021/09/24 01:01:04;;;;;;;1220.45;999.90;;;;;;;15.55;53.49;100594.88;679678;29;44021;-67
2021/09/24 01:01:25;;;;;;;1206.38;999.90;;;;;;;15.55;53.72;100588.59;679068;29;47219;-68
2021/09/24 01:01:46;;;;;;;1200.53;999.90;;;;;;;15.54;53.72;100593.22;680597;29;23434;-68
2021/09/24 01:02:08;;;;;;;1196.97;999.90;;;;;;;15.54;53.52;100589.66;680015;28;21553;-67
2021/09/24 01:02:29;;;;;;;1201.13;999.90;;;;;;;15.52;53.77;100591.75;679845;29;45296;-68
2021/09/24 01:02:51;;;;;;;1209.78;999.90;;;;;;;15.49;53.65;100593.03;680710;29;22386;-68
2021/09/24 01:03:12;;;;;;;1211.90;999.90;;;;;;;15.50;53.72;100591.94;680183;29;21561;-67
2021/09/24 01:03:34;;;;;;;1215.22;999.90;;;;;;;15.50;53.80;100603.69;680679;29;23913;-67
2021/09/24 01:03:55;;;;;;;1227.63;999.90;;;;;;;15.52;53.81;100598.03;679530;29;46522;-67
2021/09/24 01:04:16;;;;;;;1230.68;999.90;;;;;;;15.50;53.56;100598.25;680199;29;24318;-68
2021/09/24 01:04:37;;;;;;;1230.78;999.90;;;;;;;15.49;53.88;100596.56;680681;28;21539;-68
2021/09/24 01:04:58;;;;;;;1224.28;999.90;;;;;;;15.48;53.72;100592.16;679565;28;46378;-68
2021/09/24 01:05:20;;;;;;;1223.30;999.90;;;;;;;15.47;53.82;100587.78;680639;29;22173;-68
2021/09/24 01:05:41;;;;;;;1220.63;999.90;;;;;;;15.47;54.07;100581.53;679222;28;44328;-68
2021/09/24 01:06:02;;;;;;;1203.60;999.90;;;;;;;15.47;53.94;100587.78;680500;29;22420;-68
2021/09/24 01:06:24;;;;;;;1195.63;999.90;;;;;;;15.45;53.98;100587.19;680635;29;22630;-68
2021/09/24 01:06:46;;;;;;;1201.90;999.90;;;;;;;15.42;53.91;100584.03;680087;29;22245;-68
2021/09/24 01:07:07;;;;;;;1209.47;999.90;;;;;;;15.44;53.82;100593.66;679773;28;46298;-68
2021/09/24 01:07:28;;;;;;;1211.75;999.90;;;;;;;15.41;53.77;100585.09;680352;29;23530;-68
2021/09/24 01:07:51;;;;;;;1219.55;999.90;;;;;;;15.43;53.97;100581.09;679269;29;46313;-68
2021/09/24 01:08:14;;;;;;;1231.78;999.90;;;;;;;15.42;54.14;100584.88;679394;29;45560;-68
2021/09/24 01:08:35;;;;;;;1235.25;999.90;;;;;;;15.42;53.82;100584.03;678948;29;69570;-68
2021/09/24 01:08:56;;;;;;;1235.38;999.90;;;;;;;15.40;54.00;100584.22;680058;29;21511;-67
2021/09/24 01:09:19;;;;;;;1234.38;999.90;;;;;;;15.40;53.84;100589.69;680454;29;21550;-68
2021/09/24 01:09:40;;;;;;;1228.47;999.90;;;;;;;15.40;53.95;100583.41;678914;29;67486;-68
2021/09/24 01:10:01;;;;;;;1219.10;999.90;;;;;;;15.39;53.85;100587.16;680230;28;22370;-68
2021/09/24 01:10:23;;;;;;;1199.72;999.90;;;;;;;15.39;54.14;100588.03;679640;28;22410;-68
2021/09/24 01:10:44;;;;;;;1196.00;999.90;;;;;;;15.38;53.98;100585.50;679172;28;44136;-67
2021/09/24 01:11:05;;;;;;;1200.22;999.90;;;;;;;15.36;53.92;100584.88;680585;29;21097;-67
2021/09/24 01:11:26;;;;;;;1200.70;999.90;;;;;;;15.36;54.11;100585.72;679978;29;21511;-68
2021/09/24 01:11:48;;;;;;;1203.45;999.90;;;;;;;15.35;54.03;100585.94;680499;29;21601;-67
2021/09/24 01:12:10;;;;;;;1214.38;999.90;;;;;;;15.34;54.17;100587.81;679009;28;67548;-67
2021/09/24 01:12:31;;;;;;;1220.85;999.90;;;;;;;15.34;54.15;100587.81;679704;29;44369;-68
2021/09/24 01:12:53;;;;;;;1228.57;999.90;;;;;;;15.35;54.01;100577.78;680752;29;22372;-68
2021/09/24 01:13:16;;;;;;;1240.88;999.90;;;;;;;15.33;54.29;100586.16;679453;29;45253;-68
2021/09/24 01:13:37;;;;;;;1244.28;999.90;;;;;;;15.35;54.42;100591.38;678819;29;69559;-68
2021/09/24 01:13:58;;;;;;;1244.40;999.90;;;;;;;15.35;54.31;100592.22;680229;28;22571;-68
2021/09/24 01:14:20;;;;;;;1238.53;999.90;;;;;;;15.34;54.21;100587.81;680414;29;23338;-68
2021/09/24 01:14:41;;;;;;;1222.53;999.90;;;;;;;15.32;54.18;100587.19;679788;29;46429;-67
2021/09/24 01:15:04;;;;;;;1214.90;999.90;;;;;;;15.27;54.06;100581.56;680323;28;22424;-68
2021/09/24 01:15:26;;;;;;;1213.63;999.90;;;;;;;15.32;54.07;100589.91;680423;28;22063;-68
2021/09/24 01:15:47;;;;;;;1214.57;999.90;;;;;;;15.30;54.33;100592.84;678978;28;44367;-68
2021/09/24 01:16:08;;;;;;;1216.28;999.90;;;;;;;15.29;54.26;100593.88;680389;29;21349;-68
2021/09/24 01:16:29;;;;;;;1219.20;999.90;;;;;;;15.30;54.38;100590.13;680592;29;22357;-68
2021/09/24 01:16:51;;;;;;;1229.20;999.90;;;;;;;15.29;54.26;100596.59;680666;29;22429;-68
2021/09/24 01:17:12;;;;;;;1238.53;999.90;;;;;;;15.27;54.32;100593.25;679594;28;44339;-68
2021/09/24 01:17:34;;;;;;;1236.80;999.90;;;;;;;15.27;54.44;100598.72;680077;29;21533;-68
2021/09/24 01:17:55;;;;;;;1239.88;999.90;;;;;;;15.28;54.28;100596.81;680239;28;23429;-68
2021/09/24 01:18:17;;;;;;;1241.00;999.90;;;;;;;15.29;54.24;100598.50;680171;29;23439;-68
2021/09/24 01:18:38;;;;;;;1231.22;999.90;;;;;;;15.28;54.58;100596.81;679644;29;46297;-67
2021/09/24 01:18:59;;;;;;;1219.88;999.90;;;;;;;15.28;54.42;100594.09;680482;28;23670;-68
2021/09/24 01:19:20;;;;;;;1216.82;999.90;;;;;;;15.30;54.37;100592.84;679769;29;45262;-68
2021/09/24 01:19:42;;;;;;;1215.80;999.90;;;;;;;15.29;54.67;100593.88;680324;29;23534;-68
2021/09/24 01:20:04;;;;;;;1210.35;999.90;;;;;;;15.28;54.64;100588.66;679197;28;45332;-68
2021/09/24 01:20:26;;;;;;;1224.15;999.90;;;;;;;15.28;54.51;100585.94;679814;29;45086;-68
2021/09/24 01:20:49;;;;;;;1165.72;999.90;;;;;;;15.28;54.40;100585.94;678842;28;45257;-68
2021/09/24 01:21:11;;;;;;;1192.22;999.90;;;;;;;15.28;54.30;100592.22;678922;29;68462;-68
2021/09/24 01:21:32;;;;;;;1240.40;999.90;;;;;;;15.27;54.30;100585.09;679430;29;45492;-68
2021/09/24 01:21:54;;;;;;;1243.05;999.90;;;;;;;15.26;54.46;100579.88;680845;29;21347;-68
2021/09/24 01:22:16;;;;;;;1248.00;999.90;;;;;;;15.25;54.34;100586.34;680017;28;23513;-68
2021/09/24 01:22:37;;;;;;;1243.85;999.90;;;;;;;15.24;54.54;100577.38;678412;29;45403;-68
2021/09/24 01:22:58;;;;;;;1239.22;999.90;;;;;;;15.25;54.73;100578.19;679967;29;45247;-68
2021/09/24 01:23:19;;;;;;;1243.75;999.90;;;;;;;15.24;54.72;100584.69;680723;29;22425;-67
2021/09/24 01:23:41;;;;;;;1237.93;999.90;;;;;;;15.24;54.42;100590.13;680432;29;23484;-68
2021/09/24 01:24:03;;;;;;;1226.43;999.90;;;;;;;15.24;54.80;100579.25;679600;28;47234;-68
2021/09/24 01:24:24;;;;;;;1222.47;999.90;;;;;;;15.24;54.73;100590.13;679708;29;45275;-68
2021/09/24 01:24:46;;;;;;;1224.88;999.90;;;;;;;15.24;54.61;100590.97;680403;29;21532;-68
2021/09/24 01:25:09;;;;;;;1221.75;999.90;;;;;;;15.23;54.62;100592.00;678779;28;22259;-68
2021/09/24 01:25:30;;;;;;;1225.75;999.90;;;;;;;15.24;54.64;100584.69;678626;29;70206;-68
2021/09/24 01:25:51;;;;;;;1237.53;999.90;;;;;;;15.23;54.83;100583.84;680388;28;21570;-68
2021/09/24 01:26:12;;;;;;;1235.78;999.90;;;;;;;15.24;54.73;100590.13;680209;29;22225;-68
2021/09/24 01:26:33;;;;;;;1230.57;999.90;;;;;;;15.25;54.79;100586.34;680397;29;22406;-68
2021/09/24 01:26:56;;;;;;;1135.78;999.90;;;;;;;15.25;54.68;100586.34;679896;29;44205;-68
2021/09/24 01:27:17;;;;;;;1208.00;999.90;;;;;;;15.25;54.85;100591.78;678677;28;69324;-68
2021/09/24 01:27:38;;;;;;;1229.00;999.90;;;;;;;15.27;54.71;100592.44;679841;29;23475;-68
2021/09/24 01:28:00;;;;;;;1228.90;999.90;;;;;;;15.26;54.63;100593.47;680289;29;22382;-68
2021/09/24 01:28:23;;;;;;;1222.10;999.90;;;;;;;15.25;54.68;100594.50;679841;29;39634;-68
2021/09/24 01:28:44;;;;;;;1208.32;999.90;;;;;;;15.29;54.77;100593.06;679599;29;46333;-68
2021/09/24 01:29:05;;;;;;;1198.65;999.90;;;;;;;15.31;54.77;100599.09;679426;28;45426;-68
2021/09/24 01:29:29;;;;;;;1172.60;999.90;;;;;;;15.31;54.55;100590.94;680085;29;21549;-68
2021/09/24 01:29:51;;;;;;;1181.78;999.90;;;;;;;15.31;54.54;100593.66;678616;28;69443;-68
2021/09/24 01:30:12;;;;;;;1127.85;999.90;;;;;;;15.34;54.44;100600.59;679446;29;46338;-68
2021/09/24 01:30:33;;;;;;;1045.57;979.45;;;;;;;15.34;54.75;100603.31;679682;28;45235;-68
2021/09/24 01:30:56;;;;;;;1192.22;999.90;;;;;;;15.33;54.72;100597.03;679667;28;22395;-68
2021/09/24 01:31:19;;;;;;;1209.82;999.90;;;;;;;15.30;54.47;100590.13;679469;29;46304;-68
2021/09/24 01:31:40;;;;;;;1246.25;999.90;;;;;;;15.32;54.26;100603.50;678850;29;69083;-68
2021/09/24 01:32:02;;;;;;;1243.03;999.90;;;;;;;15.32;54.60;100598.06;680436;29;22448;-68
2021/09/24 01:32:24;;;;;;;1226.47;999.90;;;;;;;15.28;54.32;100591.38;679288;28;45396;-68
2021/09/24 01:32:46;;;;;;;1152.00;999.90;;;;;;;15.30;54.64;100602.91;679553;29;45247;-68
2021/09/24 01:33:07;;;;;;;1216.70;999.90;;;;;;;15.29;54.47;100602.03;679447;29;46330;-68
2021/09/24 01:33:29;;;;;;;1206.80;999.90;;;;;;;15.29;54.42;100598.50;680461;29;22438;-68
2021/09/24 01:33:50;;;;;;;1209.30;999.90;;;;;;;15.28;54.56;100605.84;679544;29;44288;-68
2021/09/24 01:34:11;;;;;;;1214.82;999.90;;;;;;;15.28;54.59;100613.13;681349;28;22385;-67
2021/09/24 01:34:32;;;;;;;1216.07;999.90;;;;;;;15.30;54.72;100605.63;683108;28;19575;-68
2021/09/24 01:34:54;;;;;;;1219.05;999.90;;;;;;;15.29;54.49;100610.22;682728;28;23487;-68
2021/09/24 01:35:16;;;;;;;1225.35;999.90;;;;;;;15.29;54.39;100603.94;681585;28;47444;-68
2021/09/24 01:35:37;;;;;;;1233.50;999.90;;;;;;;15.31;54.72;100613.56;682348;28;34244;-68
2021/09/24 01:35:59;;;;;;;1115.70;999.90;;;;;;;15.34;54.48;100597.84;682844;28;21489;-68
2021/09/24 01:36:21;;;;;;;1099.72;999.90;;;;;;;15.33;54.46;100597.03;682419;28;44384;-68